sensor_id;sensor_type;location;lat;lon;timestamp;P1;durP1;ratioP1;P2;durP2;ratioP2
22219;SDS011;11279;48.364;10.904;2022-10-04T00:00:37;21.02;;;10.38;;
22219;SDS011;11279;48.364;10.904;2022-10-04T00:01:44;18.20;;;10.68;;
22219;SDS011;11279;48.364;10.904;2022-10-04T00:02:48;20.05;;;10.73;;
22219;SDS011;11279;48.364;10.904;2022-10-04T00:03:50;20.53;;;10.57;;
22219;SDS011;11279;48.364;10.904;2022-10-04T00:05:04;18.73;;;11.40;;
22219;SDS011;11279;48.364;10.904;2022-10-04T00:06:10;18.25;;;11.32;;
22219;SDS011;11279;48.364;10.904;2022-10-04T00:07:23;19.17;;;10.23;;
22219;SDS011;11279;48.364;10.904;2022-10-04T00:08:31;18.15;;;10.85;;
22219;SDS011;11279;48.364;10.904;2022-10-04T00:09:53;18.70;;;10.43;;
22219;SDS011;11279;48.364;10.904;2022-10-04T00:11:03;17.38;;;10.73;;
22219;SDS011;11279;48.364;10.904;2022-10-04T00:12:13;22.88;;;10.80;;
22219;SDS011;11279;48.364;10.904;2022-10-04T00:13:22;14.77;;;9.90;;
22219;SDS011;11279;48.364;10.904;2022-10-04T00:14:29;23.27;;;10.50;;
22219;SDS011;11279;48.364;10.904;2022-10-04T00:15:34;19.17;;;10.52;;
22219;SDS011;11279;48.364;10.904;2022-10-04T00:16:37;24.08;;;10.75;;
22219;SDS011;11279;48.364;10.904;2022-10-04T00:17:38;17.27;;;10.35;;
22219;SDS011;11279;48.364;10.904;2022-10-04T00:18:40;15.23;;;10.30;;
22219;SDS011;11279;48.364;10.904;2022-10-04T00:19:48;19.20;;;10.02;;
22219;SDS011;11279;48.364;10.904;2022-10-04T00:23:42;15.13;;;9.93;;
22219;SDS011;11279;48.364;10.904;2022-10-04T00:25:32;17.30;;;9.85;;
22219;SDS011;11279;48.364;10.904;2022-10-04T00:27:37;19.88;;;10.23;;
22219;SDS011;11279;48.364;10.904;2022-10-04T00:28:45;18.00;;;10.23;;
22219;SDS011;11279;48.364;10.904;2022-10-04T00:30:33;18.00;;;10.15;;
22219;SDS011;11279;48.364;10.904;2022-10-04T00:31:23;21.92;;;10.68;;
22219;SDS011;11279;48.364;10.904;2022-10-04T00:32:25;17.55;;;10.10;;
22219;SDS011;11279;48.364;10.904;2022-10-04T00:33:48;18.85;;;10.25;;
22219;SDS011;11279;48.364;10.904;2022-10-04T00:34:55;21.05;;;10.23;;
22219;SDS011;11279;48.364;10.904;2022-10-04T00:35:57;17.50;;;9.77;;
22219;SDS011;11279;48.364;10.904;2022-10-04T00:36:57;16.17;;;9.67;;
22219;SDS011;11279;48.364;10.904;2022-10-04T00:39:14;20.90;;;10.35;;
22219;SDS011;11279;48.364;10.904;2022-10-04T00:40:17;17.13;;;9.88;;
22219;SDS011;11279;48.364;10.904;2022-10-04T00:41:19;19.20;;;10.70;;
22219;SDS011;11279;48.364;10.904;2022-10-04T00:43:41;18.23;;;9.68;;
22219;SDS011;11279;48.364;10.904;2022-10-04T00:45:57;18.60;;;9.95;;
22219;SDS011;11279;48.364;10.904;2022-10-04T00:47:00;21.13;;;10.55;;
22219;SDS011;11279;48.364;10.904;2022-10-04T00:49:25;15.00;;;9.15;;
22219;SDS011;11279;48.364;10.904;2022-10-04T00:50:38;19.77;;;9.93;;
22219;SDS011;11279;48.364;10.904;2022-10-04T00:52:49;18.70;;;10.82;;
22219;SDS011;11279;48.364;10.904;2022-10-04T00:54:05;15.90;;;10.35;;
22219;SDS011;11279;48.364;10.904;2022-10-04T00:55:07;18.67;;;10.65;;
22219;SDS011;11279;48.364;10.904;2022-10-04T00:56:10;17.35;;;10.85;;
22219;SDS011;11279;48.364;10.904;2022-10-04T00:57:27;15.13;;;9.40;;
22219;SDS011;11279;48.364;10.904;2022-10-04T00:58:34;20.63;;;10.10;;
22219;SDS011;11279;48.364;10.904;2022-10-04T00:59:45;18.25;;;8.82;;
22219;SDS011;11279;48.364;10.904;2022-10-04T01:00:47;14.88;;;8.95;;
22219;SDS011;11279;48.364;10.904;2022-10-04T01:01:48;16.87;;;9.03;;
22219;SDS011;11279;48.364;10.904;2022-10-04T01:03:06;15.88;;;9.10;;
22219;SDS011;11279;48.364;10.904;2022-10-04T01:04:20;18.80;;;9.07;;
22219;SDS011;11279;48.364;10.904;2022-10-04T01:05:44;18.52;;;9.63;;
22219;SDS011;11279;48.364;10.904;2022-10-04T01:06:49;18.55;;;9.93;;
22219;SDS011;11279;48.364;10.904;2022-10-04T01:07:51;15.63;;;9.35;;
22219;SDS011;11279;48.364;10.904;2022-10-04T01:08:55;14.98;;;9.07;;
22219;SDS011;11279;48.364;10.904;2022-10-04T01:10:03;16.23;;;9.63;;
22219;SDS011;11279;48.364;10.904;2022-10-04T01:11:12;18.27;;;10.15;;
22219;SDS011;11279;48.364;10.904;2022-10-04T01:12:31;15.50;;;10.23;;
22219;SDS011;11279;48.364;10.904;2022-10-04T01:13:37;14.93;;;9.20;;
22219;SDS011;11279;48.364;10.904;2022-10-04T01:16:17;14.38;;;8.57;;
22219;SDS011;11279;48.364;10.904;2022-10-04T01:17:19;13.88;;;8.57;;
22219;SDS011;11279;48.364;10.904;2022-10-04T01:20:33;18.73;;;8.77;;
22219;SDS011;11279;48.364;10.904;2022-10-04T01:21:36;16.90;;;9.55;;
22219;SDS011;11279;48.364;10.904;2022-10-04T01:22:44;21.25;;;9.88;;
22219;SDS011;11279;48.364;10.904;2022-10-04T01:24:52;16.00;;;9.10;;
22219;SDS011;11279;48.364;10.904;2022-10-04T01:25:53;16.00;;;8.97;;
22219;SDS011;11279;48.364;10.904;2022-10-04T01:26:53;15.43;;;9.77;;
22219;SDS011;11279;48.364;10.904;2022-10-04T01:27:54;14.73;;;9.03;;
22219;SDS011;11279;48.364;10.904;2022-10-04T01:28:54;19.30;;;9.97;;
22219;SDS011;11279;48.364;10.904;2022-10-04T01:29:58;14.10;;;8.65;;
22219;SDS011;11279;48.364;10.904;2022-10-04T01:30:59;15.02;;;8.73;;
22219;SDS011;11279;48.364;10.904;2022-10-04T01:32:00;15.83;;;9.43;;
22219;SDS011;11279;48.364;10.904;2022-10-04T01:33:00;16.60;;;9.80;;
22219;SDS011;11279;48.364;10.904;2022-10-04T01:34:02;15.32;;;9.90;;
22219;SDS011;11279;48.364;10.904;2022-10-04T01:35:05;15.40;;;9.00;;
22219;SDS011;11279;48.364;10.904;2022-10-04T01:36:07;16.67;;;9.50;;
22219;SDS011;11279;48.364;10.904;2022-10-04T01:37:08;14.73;;;9.00;;
22219;SDS011;11279;48.364;10.904;2022-10-04T01:38:08;14.23;;;9.03;;
22219;SDS011;11279;48.364;10.904;2022-10-04T01:39:09;15.27;;;8.63;;
22219;SDS011;11279;48.364;10.904;2022-10-04T01:40:09;15.77;;;8.60;;
22219;SDS011;11279;48.364;10.904;2022-10-04T01:41:10;15.80;;;9.47;;
22219;SDS011;11279;48.364;10.904;2022-10-04T01:42:20;13.60;;;8.32;;
22219;SDS011;11279;48.364;10.904;2022-10-04T01:43:24;14.95;;;9.15;;
22219;SDS011;11279;48.364;10.904;2022-10-04T01:45:42;14.40;;;8.98;;
22219;SDS011;11279;48.364;10.904;2022-10-04T01:46:47;12.80;;;7.88;;
22219;SDS011;11279;48.364;10.904;2022-10-04T01:47:51;14.60;;;8.43;;
22219;SDS011;11279;48.364;10.904;2022-10-04T01:48:54;14.40;;;8.75;;
22219;SDS011;11279;48.364;10.904;2022-10-04T01:49:56;14.60;;;8.77;;
22219;SDS011;11279;48.364;10.904;2022-10-04T01:51:00;15.13;;;8.60;;
22219;SDS011;11279;48.364;10.904;2022-10-04T01:52:09;14.43;;;8.40;;
22219;SDS011;11279;48.364;10.904;2022-10-04T01:53:24;16.02;;;8.40;;
22219;SDS011;11279;48.364;10.904;2022-10-04T01:55:12;15.20;;;8.60;;
22219;SDS011;11279;48.364;10.904;2022-10-04T01:57:21;20.02;;;8.68;;
22219;SDS011;11279;48.364;10.904;2022-10-04T01:58:30;14.20;;;8.55;;
22219;SDS011;11279;48.364;10.904;2022-10-04T01:59:38;18.10;;;9.88;;
22219;SDS011;11279;48.364;10.904;2022-10-04T02:00:50;15.05;;;8.88;;
22219;SDS011;11279;48.364;10.904;2022-10-04T02:02:00;17.05;;;10.55;;
22219;SDS011;11279;48.364;10.904;2022-10-04T02:03:03;20.52;;;9.75;;
22219;SDS011;11279;48.364;10.904;2022-10-04T02:04:14;15.77;;;9.52;;
22219;SDS011;11279;48.364;10.904;2022-10-04T02:05:20;16.83;;;9.50;;
22219;SDS011;11279;48.364;10.904;2022-10-04T02:06:26;17.45;;;8.60;;
22219;SDS011;11279;48.364;10.904;2022-10-04T02:07:28;16.67;;;9.88;;
22219;SDS011;11279;48.364;10.904;2022-10-04T02:08:35;15.60;;;8.70;;
22219;SDS011;11279;48.364;10.904;2022-10-04T02:09:38;15.90;;;8.95;;
22219;SDS011;11279;48.364;10.904;2022-10-04T02:10:40;17.08;;;10.35;;
22219;SDS011;11279;48.364;10.904;2022-10-04T02:11:40;16.60;;;10.40;;
22219;SDS011;11279;48.364;10.904;2022-10-04T02:12:44;19.48;;;10.40;;
22219;SDS011;11279;48.364;10.904;2022-10-04T02:13:48;17.77;;;9.85;;
22219;SDS011;11279;48.364;10.904;2022-10-04T02:14:51;15.52;;;9.80;;
22219;SDS011;11279;48.364;10.904;2022-10-04T02:15:52;14.68;;;9.52;;
22219;SDS011;11279;48.364;10.904;2022-10-04T02:16:53;14.70;;;8.90;;
22219;SDS011;11279;48.364;10.904;2022-10-04T02:17:54;17.40;;;10.10;;
22219;SDS011;11279;48.364;10.904;2022-10-04T02:18:54;15.20;;;8.98;;
22219;SDS011;11279;48.364;10.904;2022-10-04T02:19:55;16.90;;;10.20;;
22219;SDS011;11279;48.364;10.904;2022-10-04T02:20:56;17.70;;;10.80;;
22219;SDS011;11279;48.364;10.904;2022-10-04T02:21:57;16.05;;;10.45;;
22219;SDS011;11279;48.364;10.904;2022-10-04T02:23:01;16.48;;;9.93;;
22219;SDS011;11279;48.364;10.904;2022-10-04T02:24:03;18.43;;;10.30;;
22219;SDS011;11279;48.364;10.904;2022-10-04T02:25:04;14.98;;;9.30;;
22219;SDS011;11279;48.364;10.904;2022-10-04T02:26:08;17.15;;;10.38;;
22219;SDS011;11279;48.364;10.904;2022-10-04T02:27:10;19.52;;;9.15;;
22219;SDS011;11279;48.364;10.904;2022-10-04T02:28:11;19.33;;;8.93;;
22219;SDS011;11279;48.364;10.904;2022-10-04T02:29:13;17.30;;;9.18;;
22219;SDS011;11279;48.364;10.904;2022-10-04T02:30:13;15.90;;;8.70;;
22219;SDS011;11279;48.364;10.904;2022-10-04T02:31:13;16.20;;;8.93;;
22219;SDS011;11279;48.364;10.904;2022-10-04T02:32:38;15.07;;;8.80;;
22219;SDS011;11279;48.364;10.904;2022-10-04T02:33:59;14.90;;;8.57;;
22219;SDS011;11279;48.364;10.904;2022-10-04T02:35:00;14.20;;;8.50;;
22219;SDS011;11279;48.364;10.904;2022-10-04T02:36:01;14.77;;;8.65;;
22219;SDS011;11279;48.364;10.904;2022-10-04T02:37:02;14.77;;;9.00;;
22219;SDS011;11279;48.364;10.904;2022-10-04T02:38:22;12.57;;;7.80;;
22219;SDS011;11279;48.364;10.904;2022-10-04T02:39:29;13.13;;;7.75;;
22219;SDS011;11279;48.364;10.904;2022-10-04T02:40:36;15.13;;;7.80;;
22219;SDS011;11279;48.364;10.904;2022-10-04T02:41:45;15.77;;;7.97;;
22219;SDS011;11279;48.364;10.904;2022-10-04T02:42:53;12.93;;;8.30;;
22219;SDS011;11279;48.364;10.904;2022-10-04T02:45:45;16.13;;;8.77;;
22219;SDS011;11279;48.364;10.904;2022-10-04T02:46:52;16.65;;;9.13;;
22219;SDS011;11279;48.364;10.904;2022-10-04T02:47:57;18.98;;;8.80;;
22219;SDS011;11279;48.364;10.904;2022-10-04T02:49:03;18.50;;;9.02;;
22219;SDS011;11279;48.364;10.904;2022-10-04T02:50:07;12.52;;;7.78;;
22219;SDS011;11279;48.364;10.904;2022-10-04T02:51:23;13.02;;;8.77;;
22219;SDS011;11279;48.364;10.904;2022-10-04T02:52:33;13.15;;;7.57;;
22219;SDS011;11279;48.364;10.904;2022-10-04T02:53:41;14.45;;;8.15;;
22219;SDS011;11279;48.364;10.904;2022-10-04T02:54:50;18.40;;;8.55;;
22219;SDS011;11279;48.364;10.904;2022-10-04T02:55:55;19.40;;;8.45;;
22219;SDS011;11279;48.364;10.904;2022-10-04T02:56:56;21.50;;;9.27;;
22219;SDS011;11279;48.364;10.904;2022-10-04T02:57:57;17.27;;;8.37;;
22219;SDS011;11279;48.364;10.904;2022-10-04T02:58:59;18.73;;;8.95;;
22219;SDS011;11279;48.364;10.904;2022-10-04T03:00:16;15.32;;;9.77;;
22219;SDS011;11279;48.364;10.904;2022-10-04T03:01:25;14.48;;;8.65;;
22219;SDS011;11279;48.364;10.904;2022-10-04T03:02:28;15.60;;;8.82;;
22219;SDS011;11279;48.364;10.904;2022-10-04T03:03:29;13.55;;;8.13;;
22219;SDS011;11279;48.364;10.904;2022-10-04T03:04:32;14.55;;;8.50;;
22219;SDS011;11279;48.364;10.904;2022-10-04T03:05:36;21.25;;;8.50;;
22219;SDS011;11279;48.364;10.904;2022-10-04T03:06:37;14.50;;;8.35;;
22219;SDS011;11279;48.364;10.904;2022-10-04T03:07:38;19.80;;;10.37;;
22219;SDS011;11279;48.364;10.904;2022-10-04T03:09:42;15.18;;;7.90;;
22219;SDS011;11279;48.364;10.904;2022-10-04T03:10:42;15.77;;;7.60;;
22219;SDS011;11279;48.364;10.904;2022-10-04T03:11:43;13.02;;;7.65;;
22219;SDS011;11279;48.364;10.904;2022-10-04T03:12:48;16.40;;;8.20;;
22219;SDS011;11279;48.364;10.904;2022-10-04T03:13:53;13.70;;;8.40;;
22219;SDS011;11279;48.364;10.904;2022-10-04T03:14:54;15.32;;;9.20;;
22219;SDS011;11279;48.364;10.904;2022-10-04T03:15:54;16.70;;;9.43;;
22219;SDS011;11279;48.364;10.904;2022-10-04T03:16:56;14.60;;;7.77;;
22219;SDS011;11279;48.364;10.904;2022-10-04T03:17:59;12.43;;;7.88;;
22219;SDS011;11279;48.364;10.904;2022-10-04T03:19:00;13.13;;;8.40;;
22219;SDS011;11279;48.364;10.904;2022-10-04T03:20:02;13.80;;;8.60;;
22219;SDS011;11279;48.364;10.904;2022-10-04T03:21:07;12.68;;;7.80;;
22219;SDS011;11279;48.364;10.904;2022-10-04T03:22:09;12.30;;;7.85;;
22219;SDS011;11279;48.364;10.904;2022-10-04T03:23:10;13.68;;;8.57;;
22219;SDS011;11279;48.364;10.904;2022-10-04T03:24:15;12.98;;;8.13;;
22219;SDS011;11279;48.364;10.904;2022-10-04T03:25:19;15.30;;;8.43;;
22219;SDS011;11279;48.364;10.904;2022-10-04T03:27:30;17.10;;;9.07;;
22219;SDS011;11279;48.364;10.904;2022-10-04T03:28:33;12.90;;;7.53;;
22219;SDS011;11279;48.364;10.904;2022-10-04T03:29:38;14.52;;;7.93;;
22219;SDS011;11279;48.364;10.904;2022-10-04T03:30:41;14.57;;;8.73;;
22219;SDS011;11279;48.364;10.904;2022-10-04T03:31:44;14.05;;;8.07;;
22219;SDS011;11279;48.364;10.904;2022-10-04T03:32:49;17.05;;;8.50;;
22219;SDS011;11279;48.364;10.904;2022-10-04T03:33:49;16.07;;;8.67;;
22219;SDS011;11279;48.364;10.904;2022-10-04T03:34:59;13.10;;;8.40;;
22219;SDS011;11279;48.364;10.904;2022-10-04T03:36:02;14.73;;;8.02;;
22219;SDS011;11279;48.364;10.904;2022-10-04T03:37:05;13.53;;;8.77;;
22219;SDS011;11279;48.364;10.904;2022-10-04T03:38:07;14.10;;;9.30;;
22219;SDS011;11279;48.364;10.904;2022-10-04T03:39:10;15.20;;;8.15;;
22219;SDS011;11279;48.364;10.904;2022-10-04T03:40:12;12.18;;;7.57;;
22219;SDS011;11279;48.364;10.904;2022-10-04T03:41:13;16.23;;;8.32;;
22219;SDS011;11279;48.364;10.904;2022-10-04T03:42:15;13.30;;;7.20;;
22219;SDS011;11279;48.364;10.904;2022-10-04T03:43:17;12.32;;;7.88;;
22219;SDS011;11279;48.364;10.904;2022-10-04T03:44:19;12.68;;;8.63;;
22219;SDS011;11279;48.364;10.904;2022-10-04T03:45:20;11.23;;;7.45;;
22219;SDS011;11279;48.364;10.904;2022-10-04T03:46:22;16.30;;;8.98;;
22219;SDS011;11279;48.364;10.904;2022-10-04T03:48:28;14.07;;;8.15;;
22219;SDS011;11279;48.364;10.904;2022-10-04T03:49:34;11.82;;;7.28;;
22219;SDS011;11279;48.364;10.904;2022-10-04T03:50:37;15.68;;;7.50;;
22219;SDS011;11279;48.364;10.904;2022-10-04T03:51:43;15.18;;;8.40;;
22219;SDS011;11279;48.364;10.904;2022-10-04T03:52:47;14.65;;;8.45;;
22219;SDS011;11279;48.364;10.904;2022-10-04T03:53:53;13.27;;;7.85;;
22219;SDS011;11279;48.364;10.904;2022-10-04T03:54:57;18.67;;;8.93;;
22219;SDS011;11279;48.364;10.904;2022-10-04T03:55:59;14.77;;;7.63;;
22219;SDS011;11279;48.364;10.904;2022-10-04T03:57:01;12.95;;;7.85;;
22219;SDS011;11279;48.364;10.904;2022-10-04T03:58:02;14.07;;;8.30;;
22219;SDS011;11279;48.364;10.904;2022-10-04T03:59:03;13.43;;;7.83;;
22219;SDS011;11279;48.364;10.904;2022-10-04T04:00:04;19.13;;;8.40;;
22219;SDS011;11279;48.364;10.904;2022-10-04T04:03:45;16.17;;;8.70;;
22219;SDS011;11279;48.364;10.904;2022-10-04T04:06:40;16.00;;;8.82;;
22219;SDS011;11279;48.364;10.904;2022-10-04T04:09:24;18.08;;;8.77;;
22219;SDS011;11279;48.364;10.904;2022-10-04T04:10:34;13.13;;;8.38;;
22219;SDS011;11279;48.364;10.904;2022-10-04T04:11:38;16.40;;;8.88;;
22219;SDS011;11279;48.364;10.904;2022-10-04T04:12:40;18.80;;;10.20;;
22219;SDS011;11279;48.364;10.904;2022-10-04T04:13:53;19.42;;;9.68;;
22219;SDS011;11279;48.364;10.904;2022-10-04T04:14:55;16.70;;;9.57;;
22219;SDS011;11279;48.364;10.904;2022-10-04T04:15:59;16.17;;;9.43;;
22219;SDS011;11279;48.364;10.904;2022-10-04T04:18:27;14.10;;;9.02;;
22219;SDS011;11279;48.364;10.904;2022-10-04T04:19:30;17.23;;;10.27;;
22219;SDS011;11279;48.364;10.904;2022-10-04T04:20:31;16.23;;;9.57;;
22219;SDS011;11279;48.364;10.904;2022-10-04T04:21:33;14.82;;;8.48;;
22219;SDS011;11279;48.364;10.904;2022-10-04T04:22:35;13.55;;;9.23;;
22219;SDS011;11279;48.364;10.904;2022-10-04T04:23:38;15.55;;;8.77;;
22219;SDS011;11279;48.364;10.904;2022-10-04T04:24:40;14.45;;;8.68;;
22219;SDS011;11279;48.364;10.904;2022-10-04T04:25:46;15.63;;;9.23;;
22219;SDS011;11279;48.364;10.904;2022-10-04T04:26:49;21.42;;;10.10;;
22219;SDS011;11279;48.364;10.904;2022-10-04T04:27:58;15.13;;;9.10;;
22219;SDS011;11279;48.364;10.904;2022-10-04T04:29:05;14.65;;;9.55;;
22219;SDS011;11279;48.364;10.904;2022-10-04T04:30:18;16.52;;;9.20;;
22219;SDS011;11279;48.364;10.904;2022-10-04T04:31:23;17.83;;;9.17;;
22219;SDS011;11279;48.364;10.904;2022-10-04T04:32:29;15.98;;;9.23;;
22219;SDS011;11279;48.364;10.904;2022-10-04T04:33:47;13.32;;;8.35;;
22219;SDS011;11279;48.364;10.904;2022-10-04T04:36:10;16.20;;;8.60;;
22219;SDS011;11279;48.364;10.904;2022-10-04T04:37:12;15.52;;;9.27;;
22219;SDS011;11279;48.364;10.904;2022-10-04T04:39:21;14.63;;;8.48;;
22219;SDS011;11279;48.364;10.904;2022-10-04T04:40:38;16.85;;;9.07;;
22219;SDS011;11279;48.364;10.904;2022-10-04T04:41:39;15.17;;;8.40;;
22219;SDS011;11279;48.364;10.904;2022-10-04T04:42:40;17.23;;;9.17;;
22219;SDS011;11279;48.364;10.904;2022-10-04T04:43:42;14.90;;;9.20;;
22219;SDS011;11279;48.364;10.904;2022-10-04T04:44:49;14.23;;;9.25;;
22219;SDS011;11279;48.364;10.904;2022-10-04T04:45:51;14.02;;;8.95;;
22219;SDS011;11279;48.364;10.904;2022-10-04T04:46:54;15.05;;;9.20;;
22219;SDS011;11279;48.364;10.904;2022-10-04T04:47:56;16.88;;;8.93;;
22219;SDS011;11279;48.364;10.904;2022-10-04T04:48:58;15.35;;;8.85;;
22219;SDS011;11279;48.364;10.904;2022-10-04T04:50:05;17.70;;;9.07;;
22219;SDS011;11279;48.364;10.904;2022-10-04T04:51:11;13.57;;;7.97;;
22219;SDS011;11279;48.364;10.904;2022-10-04T04:52:16;15.93;;;8.75;;
22219;SDS011;11279;48.364;10.904;2022-10-04T04:53:23;17.98;;;10.23;;
22219;SDS011;11279;48.364;10.904;2022-10-04T04:54:26;18.38;;;9.48;;
22219;SDS011;11279;48.364;10.904;2022-10-04T04:55:28;14.23;;;8.70;;
22219;SDS011;11279;48.364;10.904;2022-10-04T04:56:31;14.70;;;8.23;;
22219;SDS011;11279;48.364;10.904;2022-10-04T04:57:32;13.57;;;7.88;;
22219;SDS011;11279;48.364;10.904;2022-10-04T04:58:36;12.33;;;7.43;;
22219;SDS011;11279;48.364;10.904;2022-10-04T04:59:38;15.57;;;8.55;;
22219;SDS011;11279;48.364;10.904;2022-10-04T05:00:43;16.05;;;8.80;;
22219;SDS011;11279;48.364;10.904;2022-10-04T05:01:49;15.27;;;8.13;;
22219;SDS011;11279;48.364;10.904;2022-10-04T05:02:50;13.70;;;8.03;;
22219;SDS011;11279;48.364;10.904;2022-10-04T05:05:16;13.07;;;7.35;;
22219;SDS011;11279;48.364;10.904;2022-10-04T05:06:25;13.95;;;8.48;;
22219;SDS011;11279;48.364;10.904;2022-10-04T05:07:26;15.18;;;9.20;;
22219;SDS011;11279;48.364;10.904;2022-10-04T05:08:29;12.18;;;7.22;;
22219;SDS011;11279;48.364;10.904;2022-10-04T05:09:34;14.55;;;7.97;;
22219;SDS011;11279;48.364;10.904;2022-10-04T05:10:36;12.15;;;7.38;;
22219;SDS011;11279;48.364;10.904;2022-10-04T05:11:39;14.18;;;7.93;;
22219;SDS011;11279;48.364;10.904;2022-10-04T05:12:40;13.40;;;7.97;;
22219;SDS011;11279;48.364;10.904;2022-10-04T05:13:48;17.23;;;8.40;;
22219;SDS011;11279;48.364;10.904;2022-10-04T05:14:51;12.43;;;7.57;;
22219;SDS011;11279;48.364;10.904;2022-10-04T05:15:53;14.75;;;7.72;;
22219;SDS011;11279;48.364;10.904;2022-10-04T05:16:54;16.75;;;7.80;;
22219;SDS011;11279;48.364;10.904;2022-10-04T05:17:54;14.10;;;7.27;;
22219;SDS011;11279;48.364;10.904;2022-10-04T05:18:56;15.50;;;8.00;;
22219;SDS011;11279;48.364;10.904;2022-10-04T05:19:59;16.08;;;8.30;;
22219;SDS011;11279;48.364;10.904;2022-10-04T05:21:14;13.85;;;7.80;;
22219;SDS011;11279;48.364;10.904;2022-10-04T05:22:20;17.08;;;7.55;;
22219;SDS011;11279;48.364;10.904;2022-10-04T05:23:22;15.95;;;8.18;;
22219;SDS011;11279;48.364;10.904;2022-10-04T05:24:32;15.37;;;8.20;;
22219;SDS011;11279;48.364;10.904;2022-10-04T05:25:35;13.63;;;7.43;;
22219;SDS011;11279;48.364;10.904;2022-10-04T05:26:36;15.13;;;7.97;;
22219;SDS011;11279;48.364;10.904;2022-10-04T05:27:39;12.00;;;7.73;;
22219;SDS011;11279;48.364;10.904;2022-10-04T05:28:41;13.35;;;8.27;;
22219;SDS011;11279;48.364;10.904;2022-10-04T05:29:56;14.50;;;8.27;;
22219;SDS011;11279;48.364;10.904;2022-10-04T05:34:43;14.35;;;7.50;;
22219;SDS011;11279;48.364;10.904;2022-10-04T05:39:37;17.92;;;8.30;;
22219;SDS011;11279;48.364;10.904;2022-10-04T05:41:07;14.35;;;7.97;;
22219;SDS011;11279;48.364;10.904;2022-10-04T05:42:11;15.27;;;8.32;;
22219;SDS011;11279;48.364;10.904;2022-10-04T05:43:23;15.88;;;8.60;;
22219;SDS011;11279;48.364;10.904;2022-10-04T05:44:30;15.10;;;8.68;;
22219;SDS011;11279;48.364;10.904;2022-10-04T05:45:35;14.32;;;7.55;;
22219;SDS011;11279;48.364;10.904;2022-10-04T05:46:35;18.50;;;8.40;;
22219;SDS011;11279;48.364;10.904;2022-10-04T05:47:36;14.17;;;8.17;;
22219;SDS011;11279;48.364;10.904;2022-10-04T05:48:40;15.50;;;7.70;;
22219;SDS011;11279;48.364;10.904;2022-10-04T05:49:42;15.13;;;7.78;;
22219;SDS011;11279;48.364;10.904;2022-10-04T05:50:43;17.23;;;7.20;;
22219;SDS011;11279;48.364;10.904;2022-10-04T05:51:48;18.80;;;8.43;;
22219;SDS011;11279;48.364;10.904;2022-10-04T05:52:49;18.05;;;8.18;;
22219;SDS011;11279;48.364;10.904;2022-10-04T05:53:51;14.32;;;7.50;;
22219;SDS011;11279;48.364;10.904;2022-10-04T05:56:37;12.00;;;6.47;;
22219;SDS011;11279;48.364;10.904;2022-10-04T06:01:17;10.82;;;6.55;;
22219;SDS011;11279;48.364;10.904;2022-10-04T06:05:12;19.02;;;8.02;;
22219;SDS011;11279;48.364;10.904;2022-10-04T06:06:16;11.45;;;7.00;;
22219;SDS011;11279;48.364;10.904;2022-10-04T06:07:29;13.05;;;6.60;;
22219;SDS011;11279;48.364;10.904;2022-10-04T06:08:50;10.93;;;6.43;;
22219;SDS011;11279;48.364;10.904;2022-10-04T06:17:06;15.02;;;6.53;;
22219;SDS011;11279;48.364;10.904;2022-10-04T06:18:35;13.70;;;6.38;;
22219;SDS011;11279;48.364;10.904;2022-10-04T06:21:55;12.38;;;6.18;;
22219;SDS011;11279;48.364;10.904;2022-10-04T06:23:09;11.40;;;6.43;;
22219;SDS011;11279;48.364;10.904;2022-10-04T06:24:14;12.48;;;7.00;;
22219;SDS011;11279;48.364;10.904;2022-10-04T06:29:22;15.63;;;7.68;;
22219;SDS011;11279;48.364;10.904;2022-10-04T06:30:26;13.45;;;7.68;;
22219;SDS011;11279;48.364;10.904;2022-10-04T06:34:07;19.20;;;8.90;;
22219;SDS011;11279;48.364;10.904;2022-10-04T06:35:29;17.98;;;8.52;;
22219;SDS011;11279;48.364;10.904;2022-10-04T06:39:32;15.73;;;6.70;;
22219;SDS011;11279;48.364;10.904;2022-10-04T06:42:12;11.52;;;6.53;;
22219;SDS011;11279;48.364;10.904;2022-10-04T06:49:53;12.50;;;6.07;;
22219;SDS011;11279;48.364;10.904;2022-10-04T06:57:17;8.93;;;5.13;;
22219;SDS011;11279;48.364;10.904;2022-10-04T07:00:21;13.85;;;6.03;;
22219;SDS011;11279;48.364;10.904;2022-10-04T07:01:28;11.55;;;5.78;;
22219;SDS011;11279;48.364;10.904;2022-10-04T07:02:33;10.85;;;5.13;;
22219;SDS011;11279;48.364;10.904;2022-10-04T07:03:50;12.43;;;5.70;;
22219;SDS011;11279;48.364;10.904;2022-10-04T07:04:55;10.65;;;5.18;;
22219;SDS011;11279;48.364;10.904;2022-10-04T07:06:02;11.45;;;5.20;;
22219;SDS011;11279;48.364;10.904;2022-10-04T07:07:14;10.93;;;5.43;;
22219;SDS011;11279;48.364;10.904;2022-10-04T07:08:44;9.63;;;5.00;;
22219;SDS011;11279;48.364;10.904;2022-10-04T07:09:47;9.32;;;5.10;;
22219;SDS011;11279;48.364;10.904;2022-10-04T07:10:52;12.32;;;5.82;;
22219;SDS011;11279;48.364;10.904;2022-10-04T07:11:57;11.93;;;5.22;;
22219;SDS011;11279;48.364;10.904;2022-10-04T07:14:35;12.23;;;4.97;;
22219;SDS011;11279;48.364;10.904;2022-10-04T07:17:31;9.85;;;5.38;;
22219;SDS011;11279;48.364;10.904;2022-10-04T07:18:38;7.68;;;4.88;;
22219;SDS011;11279;48.364;10.904;2022-10-04T07:19:45;9.02;;;5.32;;
22219;SDS011;11279;48.364;10.904;2022-10-04T07:20:48;12.25;;;5.88;;
22219;SDS011;11279;48.364;10.904;2022-10-04T07:23:14;14.18;;;5.80;;
22219;SDS011;11279;48.364;10.904;2022-10-04T07:24:32;10.63;;;4.93;;
22219;SDS011;11279;48.364;10.904;2022-10-04T07:26:00;12.23;;;5.88;;
22219;SDS011;11279;48.364;10.904;2022-10-04T07:27:07;9.18;;;5.38;;
22219;SDS011;11279;48.364;10.904;2022-10-04T07:28:11;11.75;;;5.90;;
22219;SDS011;11279;48.364;10.904;2022-10-04T07:29:35;10.50;;;5.18;;
22219;SDS011;11279;48.364;10.904;2022-10-04T07:30:38;9.65;;;6.07;;
22219;SDS011;11279;48.364;10.904;2022-10-04T07:31:42;11.82;;;5.47;;
22219;SDS011;11279;48.364;10.904;2022-10-04T07:32:45;9.07;;;5.22;;
22219;SDS011;11279;48.364;10.904;2022-10-04T07:33:50;11.77;;;5.10;;
22219;SDS011;11279;48.364;10.904;2022-10-04T07:36:42;11.52;;;5.30;;
22219;SDS011;11279;48.364;10.904;2022-10-04T07:37:52;10.68;;;6.38;;
22219;SDS011;11279;48.364;10.904;2022-10-04T07:40:23;9.90;;;5.72;;
22219;SDS011;11279;48.364;10.904;2022-10-04T07:41:30;12.40;;;5.68;;
22219;SDS011;11279;48.364;10.904;2022-10-04T07:44:45;14.67;;;5.70;;
22219;SDS011;11279;48.364;10.904;2022-10-04T07:45:53;11.48;;;5.53;;
22219;SDS011;11279;48.364;10.904;2022-10-04T07:47:11;11.40;;;5.65;;
22219;SDS011;11279;48.364;10.904;2022-10-04T07:48:18;10.88;;;5.65;;
22219;SDS011;11279;48.364;10.904;2022-10-04T07:49:22;11.32;;;5.13;;
22219;SDS011;11279;48.364;10.904;2022-10-04T07:50:27;11.63;;;5.30;;
22219;SDS011;11279;48.364;10.904;2022-10-04T07:51:35;11.77;;;5.30;;
22219;SDS011;11279;48.364;10.904;2022-10-04T07:52:58;9.43;;;4.97;;
22219;SDS011;11279;48.364;10.904;2022-10-04T07:54:14;10.23;;;4.75;;
22219;SDS011;11279;48.364;10.904;2022-10-04T07:56:42;10.95;;;6.00;;
22219;SDS011;11279;48.364;10.904;2022-10-04T07:59:21;10.15;;;5.10;;
22219;SDS011;11279;48.364;10.904;2022-10-04T08:00:30;9.63;;;4.50;;
22219;SDS011;11279;48.364;10.904;2022-10-04T08:01:45;11.68;;;5.57;;
22219;SDS011;11279;48.364;10.904;2022-10-04T08:04:47;10.35;;;5.35;;